createdAt,value
2024-04-09T00:19:03.463Z,79.63
2024-04-09T00:49:05.975Z,80.57
2024-04-09T01:19:08.928Z,81.79
2024-04-09T01:49:11.316Z,82.65
2024-04-09T02:19:14.087Z,83.74
2024-04-09T02:49:16.189Z,85.25
2024-04-09T03:19:18.579Z,85.88
2024-04-09T03:49:21.077Z,86.26
2024-04-09T04:19:24.129Z,87.27
2024-04-09T04:49:26.414Z,88.45
2024-04-09T05:19:28.476Z,89.80
2024-04-09T05:49:30.737Z,90.18
2024-04-09T06:19:33.611Z,89.40
2024-04-09T06:49:35.979Z,88.71
2024-04-09T07:19:38.936Z,85.24
2024-04-09T07:49:40.485Z,82.19
2024-04-09T08:19:43.030Z,78.87
2024-04-09T08:49:44.836Z,74.88
2024-04-09T09:19:47.443Z,67.75
2024-04-09T09:49:50.633Z,63.90
2024-04-09T10:19:57.846Z,60.50
2024-04-09T10:49:59.854Z,53.60
2024-04-09T11:20:02.035Z,50.13
2024-04-09T11:50:03.765Z,48.12
2024-04-09T12:20:05.979Z,45.85
2024-04-09T12:50:08.278Z,43.98
2024-04-09T13:20:10.739Z,41.63
2024-04-09T13:50:12.499Z,40.93
2024-04-09T14:20:15.690Z,39.97
2024-04-09T14:50:18.510Z,39.65
2024-04-09T15:20:20.668Z,40.45
2024-04-09T15:50:22.940Z,40.70
2024-04-09T16:20:25.667Z,41.43
2024-04-09T16:50:27.981Z,43.30
2024-04-09T17:20:30.415Z,48.25
2024-04-09T17:50:32.663Z,51.30
2024-04-09T18:20:35.638Z,54.85
2024-04-09T18:50:38.144Z,56.86
2024-04-09T19:20:40.314Z,60.61
2024-04-09T19:50:42.660Z,64.12
2024-04-09T20:20:46.051Z,64.16
2024-04-09T20:50:48.459Z,64.16
2024-04-09T21:20:50.603Z,67.57
2024-04-09T21:50:54.136Z,69.01
2024-04-09T22:20:57.182Z,70.53
2024-04-09T22:50:58.652Z,71.26
2024-04-09T23:21:00.960Z,73.10
2024-04-09T23:51:02.456Z,69.98
